Lake Alice, Washington
Current Conditions -  °F | °C
As of 3:53 PM on Tuesday 25 Nov 2014 (Local Time) from KRNT Reporting Station
Light Rain Light Rain  
Wind Chill: 50°   Ceiling: 500
Heat Index: 50°   Visibility: 4mi
Dew Point: 50°   Wind: 3mph
Humidity: 100%   Direction: 310°NW
Pressure: 30.18"   Gusts: NA
Location:  47.6631°N, 121.723°W
Report Text: KRNT 252353Z 31003KT 4SM -RA BR OVC005 10/10 A3018 RMK AO2 CIG 004V009 SLP225 P0002 60011 T01000100 10100 20094 58004
Loading
Personal Weather Stations






























Interactive Weather Map New forecast layout! Learn more

10-Day Weather Forecast

Advertisements
Track Severe Weather on mobile